sensor_id;sensor_type;location;lat;lon;timestamp;pressure;altitude;pressure_sealevel;temperature
40624;BMP280;26325;48.594;11.650;2023-03-04T00:02:06;97025.09;;;0.18
40624;BMP280;26325;48.594;11.650;2023-03-04T00:04:34;97019.72;;;0.13
40624;BMP280;26325;48.594;11.650;2023-03-04T00:07:01;97021.81;;;0.10
40624;BMP280;26325;48.594;11.650;2023-03-04T00:09:27;97016.59;;;0.03
40624;BMP280;26325;48.594;11.650;2023-03-04T00:11:54;97022.28;;;0.13
40624;BMP280;26325;48.594;11.650;2023-03-04T00:14:20;97020.94;;;0.25
40624;BMP280;26325;48.594;11.650;2023-03-04T00:16:46;97026.59;;;0.35
40624;BMP280;26325;48.594;11.650;2023-03-04T00:19:13;97018.00;;;0.36
40624;BMP280;26325;48.594;11.650;2023-03-04T00:21:39;97010.09;;;0.31
40624;BMP280;26325;48.594;11.650;2023-03-04T00:24:05;97020.94;;;0.25
40624;BMP280;26325;48.594;11.650;2023-03-04T00:26:31;97020.84;;;0.11
40624;BMP280;26325;48.594;11.650;2023-03-04T00:28:56;97024.69;;;0.07
40624;BMP280;26325;48.594;11.650;2023-03-04T00:31:26;97025.19;;;0.02
40624;BMP280;26325;48.594;11.650;2023-03-04T00:33:52;97025.22;;;-0.05
40624;BMP280;26325;48.594;11.650;2023-03-04T00:36:17;97032.03;;;-0.06
40624;BMP280;26325;48.594;11.650;2023-03-04T00:38:45;97032.00;;;0.02
40624;BMP280;26325;48.594;11.650;2023-03-04T00:41:13;97013.31;;;-0.05
40624;BMP280;26325;48.594;11.650;2023-03-04T00:43:38;97017.13;;;-0.01
40624;BMP280;26325;48.594;11.650;2023-03-04T00:46:04;97013.00;;;-0.02
40624;BMP280;26325;48.594;11.650;2023-03-04T00:48:31;97018.69;;;-0.08
40624;BMP280;26325;48.594;11.650;2023-03-04T00:51:02;97009.41;;;-0.23
40624;BMP280;26325;48.594;11.650;2023-03-04T00:53:27;97009.41;;;-0.23
40624;BMP280;26325;48.594;11.650;2023-03-04T00:55:55;97017.03;;;-0.23
40624;BMP280;26325;48.594;11.650;2023-03-04T00:58:23;97008.63;;;-0.23
40624;BMP280;26325;48.594;11.650;2023-03-04T01:00:51;97011.03;;;-0.30
40624;BMP280;26325;48.594;11.650;2023-03-04T01:03:17;97018.31;;;-0.27
40624;BMP280;26325;48.594;11.650;2023-03-04T01:05:42;97010.44;;;-0.39
40624;BMP280;26325;48.594;11.650;2023-03-04T01:08:08;97001.16;;;-0.25
40624;BMP280;26325;48.594;11.650;2023-03-04T01:10:33;96999.72;;;-0.19
40624;BMP280;26325;48.594;11.650;2023-03-04T01:12:59;96999.72;;;-0.19
40624;BMP280;26325;48.594;11.650;2023-03-04T01:15:24;96999.72;;;-0.19
40624;BMP280;26325;48.594;11.650;2023-03-04T01:17:52;96998.44;;;-0.16
40624;BMP280;26325;48.594;11.650;2023-03-04T01:20:18;96998.63;;;-0.25
40624;BMP280;26325;48.594;11.650;2023-03-04T01:22:46;96994.84;;;-0.29
40624;BMP280;26325;48.594;11.650;2023-03-04T01:25:12;96999.81;;;-0.35
40624;BMP280;26325;48.594;11.650;2023-03-04T01:27:37;96997.38;;;-0.29
40624;BMP280;26325;48.594;11.650;2023-03-04T01:30:03;96994.66;;;-0.19
40624;BMP280;26325;48.594;11.650;2023-03-04T01:32:31;97000.53;;;-0.19
40624;BMP280;26325;48.594;11.650;2023-03-04T01:34:56;96992.16;;;-0.27
40624;BMP280;26325;48.594;11.650;2023-03-04T01:37:22;96998.81;;;-0.26
40624;BMP280;26325;48.594;11.650;2023-03-04T01:39:52;96985.22;;;-0.41
40624;BMP280;26325;48.594;11.650;2023-03-04T01:42:20;96979.97;;;-0.39
40624;BMP280;26325;48.594;11.650;2023-03-04T01:44:46;96981.84;;;-0.34
40624;BMP280;26325;48.594;11.650;2023-03-04T01:47:12;96967.88;;;-0.30
40624;BMP280;26325;48.594;11.650;2023-03-04T01:49:40;96977.53;;;-0.25
40624;BMP280;26325;48.594;11.650;2023-03-04T01:52:12;96979.75;;;-0.22
40624;BMP280;26325;48.594;11.650;2023-03-04T01:54:38;96970.38;;;-0.22
40624;BMP280;26325;48.594;11.650;2023-03-04T01:57:21;96973.00;;;-0.38
40624;BMP280;26325;48.594;11.650;2023-03-04T01:59:47;96971.88;;;-0.35
40624;BMP280;26325;48.594;11.650;2023-03-04T02:02:34;96972.84;;;-0.36
40624;BMP280;26325;48.594;11.650;2023-03-04T02:05:00;96966.81;;;-0.43
40624;BMP280;26325;48.594;11.650;2023-03-04T02:07:25;96969.84;;;-0.47
40624;BMP280;26325;48.594;11.650;2023-03-04T02:09:53;96966.69;;;-0.49
40624;BMP280;26325;48.594;11.650;2023-03-04T02:12:21;96960.56;;;-0.62
40624;BMP280;26325;48.594;11.650;2023-03-04T02:14:49;96971.84;;;-0.73
40624;BMP280;26325;48.594;11.650;2023-03-04T02:17:14;96975.97;;;-0.72
40624;BMP280;26325;48.594;11.650;2023-03-04T02:22:41;96977.22;;;-0.76
40624;BMP280;26325;48.594;11.650;2023-03-04T02:25:11;96968.81;;;-0.76
40624;BMP280;26325;48.594;11.650;2023-03-04T02:27:40;96967.03;;;-0.60
40624;BMP280;26325;48.594;11.650;2023-03-04T02:30:06;96963.06;;;-0.55
40624;BMP280;26325;48.594;11.650;2023-03-04T02:32:32;96967.22;;;-0.61
40624;BMP280;26325;48.594;11.650;2023-03-04T02:35:00;96956.31;;;-0.70
40624;BMP280;26325;48.594;11.650;2023-03-04T02:37:26;96954.25;;;-0.74
40624;BMP280;26325;48.594;11.650;2023-03-04T02:39:54;96949.47;;;-0.69
40624;BMP280;26325;48.594;11.650;2023-03-04T02:42:19;96955.31;;;-0.61
40624;BMP280;26325;48.594;11.650;2023-03-04T02:44:45;96957.69;;;-0.67
40624;BMP280;26325;48.594;11.650;2023-03-04T02:47:14;96961.38;;;-0.70
40624;BMP280;26325;48.594;11.650;2023-03-04T02:49:44;96974.84;;;-0.77
40624;BMP280;26325;48.594;11.650;2023-03-04T02:52:18;96967.28;;;-0.93
40624;BMP280;26325;48.594;11.650;2023-03-04T02:54:44;96961.09;;;-0.90
40624;BMP280;26325;48.594;11.650;2023-03-04T02:57:11;96968.56;;;-0.89
40624;BMP280;26325;48.594;11.650;2023-03-04T02:59:39;96961.09;;;-0.90
40624;BMP280;26325;48.594;11.650;2023-03-04T03:02:05;96963.94;;;-0.93
40624;BMP280;26325;48.594;11.650;2023-03-04T03:04:35;96972.81;;;-0.89
40624;BMP280;26325;48.594;11.650;2023-03-04T03:07:04;96973.75;;;-0.82
40624;BMP280;26325;48.594;11.650;2023-03-04T03:09:35;96963.94;;;-0.85
40624;BMP280;26325;48.594;11.650;2023-03-04T03:12:00;96967.44;;;-0.94
40624;BMP280;26325;48.594;11.650;2023-03-04T03:14:26;96963.34;;;-0.95
40624;BMP280;26325;48.594;11.650;2023-03-04T03:16:54;96965.09;;;-1.03
40624;BMP280;26325;48.594;11.650;2023-03-04T03:19:19;96960.31;;;-0.91
40624;BMP280;26325;48.594;11.650;2023-03-04T03:21:44;96965.19;;;-0.81
40624;BMP280;26325;48.594;11.650;2023-03-04T03:24:10;96969.97;;;-0.78
40624;BMP280;26325;48.594;11.650;2023-03-04T03:26:35;96964.88;;;-0.78
40624;BMP280;26325;48.594;11.650;2023-03-04T03:29:03;96961.06;;;-0.75
40624;BMP280;26325;48.594;11.650;2023-03-04T03:31:31;96968.06;;;-0.92
40624;BMP280;26325;48.594;11.650;2023-03-04T03:33:56;96964.09;;;-0.95
40624;BMP280;26325;48.594;11.650;2023-03-04T03:36:22;96965.25;;;-1.05
40624;BMP280;26325;48.594;11.650;2023-03-04T03:38:49;96968.41;;;-1.11
40624;BMP280;26325;48.594;11.650;2023-03-04T03:41:17;96962.72;;;-1.20
40624;BMP280;26325;48.594;11.650;2023-03-04T03:43:45;96964.47;;;-1.21
40624;BMP280;26325;48.594;11.650;2023-03-04T03:46:13;96967.78;;;-1.20
40624;BMP280;26325;48.594;11.650;2023-03-04T03:48:41;96964.78;;;-1.08
40624;BMP280;26325;48.594;11.650;2023-03-04T03:51:06;96970.63;;;-1.08
40624;BMP280;26325;48.594;11.650;2023-03-04T03:53:31;96958.59;;;-1.14
40624;BMP280;26325;48.594;11.650;2023-03-04T03:55:57;96958.63;;;-1.21
40624;BMP280;26325;48.594;11.650;2023-03-04T03:58:25;96964.00;;;-1.24
40624;BMP280;26325;48.594;11.650;2023-03-04T04:00:51;96962.41;;;-1.25
40624;BMP280;26325;48.594;11.650;2023-03-04T04:03:16;96957.66;;;-1.20
40624;BMP280;26325;48.594;11.650;2023-03-04T04:05:42;96958.28;;;-1.26
40624;BMP280;26325;48.594;11.650;2023-03-04T04:08:15;96958.63;;;-1.21
40624;BMP280;26325;48.594;11.650;2023-03-04T04:10:41;96964.94;;;-1.25
40624;BMP280;26325;48.594;11.650;2023-03-04T04:13:07;96957.03;;;-1.30
40624;BMP280;26325;48.594;11.650;2023-03-04T04:15:33;96961.47;;;-1.32
40624;BMP280;26325;48.594;11.650;2023-03-04T04:17:58;96962.41;;;-1.25
40624;BMP280;26325;48.594;11.650;2023-03-04T04:20:26;96958.16;;;-1.33
40624;BMP280;26325;48.594;11.650;2023-03-04T04:22:51;96963.84;;;-1.38
40624;BMP280;26325;48.594;11.650;2023-03-04T04:25:19;96959.75;;;-1.47
40624;BMP280;26325;48.594;11.650;2023-03-04T04:27:46;96966.22;;;-1.52
40624;BMP280;26325;48.594;11.650;2023-03-04T04:30:14;96959.25;;;-1.51
40624;BMP280;26325;48.594;11.650;2023-03-04T04:32:43;96963.38;;;-1.50
40624;BMP280;26325;48.594;11.650;2023-03-04T04:35:11;96955.13;;;-1.52
40624;BMP280;26325;48.594;11.650;2023-03-04T04:37:36;96951.50;;;-1.57
40624;BMP280;26325;48.594;11.650;2023-03-04T04:40:03;96952.28;;;-1.64
40624;BMP280;26325;48.594;11.650;2023-03-04T04:42:31;96948.47;;;-1.60
40624;BMP280;26325;48.594;11.650;2023-03-04T04:44:57;96950.88;;;-1.59
40624;BMP280;26325;48.594;11.650;2023-03-04T04:47:22;96957.97;;;-1.54
40624;BMP280;26325;48.594;11.650;2023-03-04T04:49:50;96958.63;;;-1.60
40624;BMP280;26325;48.594;11.650;2023-03-04T04:52:20;96955.13;;;-1.67
40624;BMP280;26325;48.594;11.650;2023-03-04T04:54:46;96957.03;;;-1.61
40624;BMP280;26325;48.594;11.650;2023-03-04T04:57:11;96960.50;;;-1.70
40624;BMP280;26325;48.594;11.650;2023-03-04T04:59:37;96951.66;;;-1.66
40624;BMP280;26325;48.594;11.650;2023-03-04T05:02:02;96954.97;;;-1.66
40624;BMP280;26325;48.594;11.650;2023-03-04T05:04:30;96949.91;;;-1.66
40624;BMP280;26325;48.594;11.650;2023-03-04T05:06:55;96959.72;;;-1.63
40624;BMP280;26325;48.594;11.650;2023-03-04T05:09:20;96957.19;;;-1.63
40624;BMP280;26325;48.594;11.650;2023-03-04T05:11:47;96957.81;;;-1.61
40624;BMP280;26325;48.594;11.650;2023-03-04T05:14:12;96959.69;;;-1.78
40624;BMP280;26325;48.594;11.650;2023-03-04T05:16:38;96961.44;;;-1.79
40624;BMP280;26325;48.594;11.650;2023-03-04T05:19:03;96961.13;;;-1.84
40624;BMP280;26325;48.594;11.650;2023-03-04T05:21:31;96971.56;;;-1.79
40624;BMP280;26325;48.594;11.650;2023-03-04T05:23:59;96964.31;;;-1.74
40624;BMP280;26325;48.594;11.650;2023-03-04T05:26:24;96959.69;;;-1.78
40624;BMP280;26325;48.594;11.650;2023-03-04T05:28:50;96968.09;;;-1.78
40624;BMP280;26325;48.594;11.650;2023-03-04T05:31:15;96966.50;;;-1.79
40624;BMP280;26325;48.594;11.650;2023-03-04T05:33:43;96967.44;;;-1.80
40624;BMP280;26325;48.594;11.650;2023-03-04T05:36:08;96973.50;;;-1.81
40624;BMP280;26325;48.594;11.650;2023-03-04T05:38:34;96969.53;;;-1.83
40624;BMP280;26325;48.594;11.650;2023-03-04T05:41:06;96969.81;;;-1.94
40624;BMP280;26325;48.594;11.650;2023-03-04T05:43:32;96964.25;;;-1.97
40624;BMP280;26325;48.594;11.650;2023-03-04T05:45:59;96963.50;;;-1.90
40624;BMP280;26325;48.594;11.650;2023-03-04T05:48:26;96965.69;;;-1.87
40624;BMP280;26325;48.594;11.650;2023-03-04T05:50:55;96964.59;;;-1.85
40624;BMP280;26325;48.594;11.650;2023-03-04T05:53:21;96964.75;;;-1.94
40624;BMP280;26325;48.594;11.650;2023-03-04T05:55:47;96968.72;;;-1.91
40624;BMP280;26325;48.594;11.650;2023-03-04T05:58:13;96972.66;;;-1.89
40624;BMP280;26325;48.594;11.650;2023-03-04T06:00:38;96972.50;;;-1.80
40624;BMP280;26325;48.594;11.650;2023-03-04T06:03:06;96976.78;;;-1.80
40624;BMP280;26325;48.594;11.650;2023-03-04T06:05:34;96976.81;;;-1.72
40624;BMP280;26325;48.594;11.650;2023-03-04T06:08:00;96979.34;;;-1.72
40624;BMP280;26325;48.594;11.650;2023-03-04T06:10:25;96980.75;;;-1.70
40624;BMP280;26325;48.594;11.650;2023-03-04T06:12:51;96982.34;;;-1.61
40624;BMP280;26325;48.594;11.650;2023-03-04T06:15:19;96981.09;;;-1.50
40624;BMP280;26325;48.594;11.650;2023-03-04T06:17:44;96977.00;;;-1.43
40624;BMP280;26325;48.594;11.650;2023-03-04T06:20:10;96980.47;;;-1.36
40624;BMP280;26325;48.594;11.650;2023-03-04T06:22:36;96986.19;;;-1.34
40624;BMP280;26325;48.594;11.650;2023-03-04T06:25:01;96992.34;;;-1.05
40624;BMP280;26325;48.594;11.650;2023-03-04T06:27:32;96988.56;;;-0.48
40624;BMP280;26325;48.594;11.650;2023-03-04T06:29:57;96981.19;;;0.76
40624;BMP280;26325;48.594;11.650;2023-03-04T06:32:26;96987.94;;;1.89
40624;BMP280;26325;48.594;11.650;2023-03-04T06:34:54;96986.94;;;3.21
40624;BMP280;26325;48.594;11.650;2023-03-04T06:37:19;96975.81;;;4.01
40624;BMP280;26325;48.594;11.650;2023-03-04T06:39:45;96985.31;;;4.19
40624;BMP280;26325;48.594;11.650;2023-03-04T06:42:13;96989.03;;;4.94
40624;BMP280;26325;48.594;11.650;2023-03-04T06:44:39;96986.28;;;5.28
40624;BMP280;26325;48.594;11.650;2023-03-04T06:47:04;96995.94;;;5.07
40624;BMP280;26325;48.594;11.650;2023-03-04T06:49:30;97001.84;;;5.32
40624;BMP280;26325;48.594;11.650;2023-03-04T06:51:55;96989.97;;;5.63
40624;BMP280;26325;48.594;11.650;2023-03-04T06:54:23;97004.53;;;5.94
40624;BMP280;26325;48.594;11.650;2023-03-04T06:56:51;96995.66;;;6.40
40624;BMP280;26325;48.594;11.650;2023-03-04T06:59:17;96988.72;;;6.53
40624;BMP280;26325;48.594;11.650;2023-03-04T07:01:42;96997.28;;;7.25
40624;BMP280;26325;48.594;11.650;2023-03-04T07:04:08;96990.66;;;8.00
40624;BMP280;26325;48.594;11.650;2023-03-04T07:06:33;96988.81;;;8.42
40624;BMP280;26325;48.594;11.650;2023-03-04T07:08:59;96994.97;;;9.10
40624;BMP280;26325;48.594;11.650;2023-03-04T07:11:24;96992.09;;;9.18
40624;BMP280;26325;48.594;11.650;2023-03-04T07:13:51;96990.28;;;10.30
40624;BMP280;26325;48.594;11.650;2023-03-04T07:16:20;96992.44;;;10.88
40624;BMP280;26325;48.594;11.650;2023-03-04T07:18:45;96991.50;;;11.37
40624;BMP280;26325;48.594;11.650;2023-03-04T07:21:15;96999.72;;;11.18
40624;BMP280;26325;48.594;11.650;2023-03-04T07:23:41;96994.09;;;11.53
40624;BMP280;26325;48.594;11.650;2023-03-04T07:26:06;97002.75;;;12.12
40624;BMP280;26325;48.594;11.650;2023-03-04T07:28:32;97008.16;;;12.31
40624;BMP280;26325;48.594;11.650;2023-03-04T07:31:07;97000.94;;;13.22
40624;BMP280;26325;48.594;11.650;2023-03-04T07:33:33;97006.97;;;13.58
40624;BMP280;26325;48.594;11.650;2023-03-04T07:35:59;97000.78;;;13.99
40624;BMP280;26325;48.594;11.650;2023-03-04T07:38:24;97003.06;;;13.30
40624;BMP280;26325;48.594;11.650;2023-03-04T07:40:57;97014.91;;;13.47
40624;BMP280;26325;48.594;11.650;2023-03-04T07:43:23;97013.78;;;13.12
40624;BMP280;26325;48.594;11.650;2023-03-04T07:45:51;97010.66;;;13.10
40624;BMP280;26325;48.594;11.650;2023-03-04T07:48:19;97004.06;;;12.72
40624;BMP280;26325;48.594;11.650;2023-03-04T07:50:47;97007.63;;;12.29
40624;BMP280;26325;48.594;11.650;2023-03-04T07:53:13;97008.84;;;12.06
40624;BMP280;26325;48.594;11.650;2023-03-04T07:55:38;97013.50;;;12.04
40624;BMP280;26325;48.594;11.650;2023-03-04T07:58:06;97020.59;;;11.60
40624;BMP280;26325;48.594;11.650;2023-03-04T08:00:31;97018.81;;;11.17
40624;BMP280;26325;48.594;11.650;2023-03-04T08:02:57;97028.81;;;10.98
40624;BMP280;26325;48.594;11.650;2023-03-04T08:05:22;97022.50;;;10.39
40624;BMP280;26325;48.594;11.650;2023-03-04T08:07:47;97017.06;;;10.52
40624;BMP280;26325;48.594;11.650;2023-03-04T08:10:13;97025.59;;;10.41
40624;BMP280;26325;48.594;11.650;2023-03-04T08:12:55;97025.09;;;10.28
40624;BMP280;26325;48.594;11.650;2023-03-04T08:15:20;97026.31;;;10.26
40624;BMP280;26325;48.594;11.650;2023-03-04T08:17:45;97035.16;;;10.79
40624;BMP280;26325;48.594;11.650;2023-03-04T08:20:11;97033.03;;;10.76
40624;BMP280;26325;48.594;11.650;2023-03-04T08:22:37;97029.22;;;11.06
40624;BMP280;26325;48.594;11.650;2023-03-04T08:25:02;97028.44;;;11.33
40624;BMP280;26325;48.594;11.650;2023-03-04T08:27:28;97037.38;;;11.14
40624;BMP280;26325;48.594;11.650;2023-03-04T08:29:55;97037.63;;;10.36
40624;BMP280;26325;48.594;11.650;2023-03-04T08:32:21;97053.69;;;9.70
40624;BMP280;26325;48.594;11.650;2023-03-04T08:34:49;97058.97;;;9.75
40624;BMP280;26325;48.594;11.650;2023-03-04T08:37:14;97046.25;;;10.41
40624;BMP280;26325;48.594;11.650;2023-03-04T08:39:40;97047.81;;;10.65
40624;BMP280;26325;48.594;11.650;2023-03-04T08:42:07;97050.38;;;9.92
40624;BMP280;26325;48.594;11.650;2023-03-04T08:44:33;97045.16;;;10.37
40624;BMP280;26325;48.594;11.650;2023-03-04T08:47:00;97045.34;;;10.85
40624;BMP280;26325;48.594;11.650;2023-03-04T08:49:26;97055.81;;;9.73
40624;BMP280;26325;48.594;11.650;2023-03-04T08:51:51;97050.44;;;9.13
40624;BMP280;26325;48.594;11.650;2023-03-04T08:54:17;97053.50;;;8.92
40624;BMP280;26325;48.594;11.650;2023-03-04T08:56:47;97048.56;;;9.19
40624;BMP280;26325;48.594;11.650;2023-03-04T08:59:12;97048.75;;;9.69
40624;BMP280;26325;48.594;11.650;2023-03-04T09:01:37;97052.53;;;9.55
40624;BMP280;26325;48.594;11.650;2023-03-04T09:04:05;97059.78;;;9.87
40624;BMP280;26325;48.594;11.650;2023-03-04T09:06:33;97049.09;;;9.61
40624;BMP280;26325;48.594;11.650;2023-03-04T09:09:01;97056.88;;;9.04
40624;BMP280;26325;48.594;11.650;2023-03-04T09:11:26;97058.16;;;9.52
40624;BMP280;26325;48.594;11.650;2023-03-04T09:13:51;97057.94;;;9.65
40624;BMP280;26325;48.594;11.650;2023-03-04T09:16:19;97056.44;;;9.47
40624;BMP280;26325;48.594;11.650;2023-03-04T09:18:45;97049.56;;;9.81
40624;BMP280;26325;48.594;11.650;2023-03-04T09:21:10;97053.88;;;9.35
40624;BMP280;26325;48.594;11.650;2023-03-04T09:23:36;97054.88;;;9.06
40624;BMP280;26325;48.594;11.650;2023-03-04T09:26:25;97055.47;;;9.08
40624;BMP280;26325;48.594;11.650;2023-03-04T09:28:54;97052.25;;;8.66
40624;BMP280;26325;48.594;11.650;2023-03-04T09:31:20;97051.38;;;7.60
40624;BMP280;26325;48.594;11.650;2023-03-04T09:33:46;97060.66;;;7.07
40624;BMP280;26325;48.594;11.650;2023-03-04T09:36:12;97049.66;;;7.30
40624;BMP280;26325;48.594;11.650;2023-03-04T09:38:39;97060.50;;;7.80
40624;BMP280;26325;48.594;11.650;2023-03-04T09:41:08;97059.88;;;8.08
40624;BMP280;26325;48.594;11.650;2023-03-04T09:43:37;97068.81;;;7.82
40624;BMP280;26325;48.594;11.650;2023-03-04T09:46:14;97063.97;;;8.09
40624;BMP280;26325;48.594;11.650;2023-03-04T09:48:46;97063.53;;;7.71
40624;BMP280;26325;48.594;11.650;2023-03-04T09:56:27;97071.63;;;6.96
40624;BMP280;26325;48.594;11.650;2023-03-04T10:01:25;97081.34;;;6.32
40624;BMP280;26325;48.594;11.650;2023-03-04T10:04:05;97082.53;;;6.30
40624;BMP280;26325;48.594;11.650;2023-03-04T10:06:34;97079.81;;;6.25
40624;BMP280;26325;48.594;11.650;2023-03-04T10:11:48;97088.94;;;5.89
40624;BMP280;26325;48.594;11.650;2023-03-04T10:20:10;97077.88;;;5.51
40624;BMP280;26325;48.594;11.650;2023-03-04T10:22:44;97079.06;;;5.30
40624;BMP280;26325;48.594;11.650;2023-03-04T10:25:22;97087.72;;;5.35
40624;BMP280;26325;48.594;11.650;2023-03-04T10:28:17;97080.06;;;5.60
40624;BMP280;26325;48.594;11.650;2023-03-04T10:31:01;97069.66;;;5.74
40624;BMP280;26325;48.594;11.650;2023-03-04T10:33:29;97077.72;;;5.59
40624;BMP280;26325;48.594;11.650;2023-03-04T10:36:00;97072.78;;;5.64
40624;BMP280;26325;48.594;11.650;2023-03-04T10:38:35;97082.63;;;5.48
40624;BMP280;26325;48.594;11.650;2023-03-04T10:41:01;97074.94;;;5.16
40624;BMP280;26325;48.594;11.650;2023-03-04T10:43:35;97081.81;;;5.34
40624;BMP280;26325;48.594;11.650;2023-03-04T10:46:01;97074.31;;;5.08
40624;BMP280;26325;48.594;11.650;2023-03-04T10:48:30;97066.47;;;5.22
40624;BMP280;26325;48.594;11.650;2023-03-04T10:51:21;97069.63;;;5.24
40624;BMP280;26325;48.594;11.650;2023-03-04T10:53:59;97069.19;;;4.95
40624;BMP280;26325;48.594;11.650;2023-03-04T10:59:23;97078.09;;;5.31
40624;BMP280;26325;48.594;11.650;2023-03-04T11:01:56;97070.94;;;4.94
40624;BMP280;26325;48.594;11.650;2023-03-04T11:04:25;97066.56;;;4.76
40624;BMP280;26325;48.594;11.650;2023-03-04T11:06:51;97072.28;;;4.72
40624;BMP280;26325;48.594;11.650;2023-03-04T11:09:26;97080.06;;;4.51
40624;BMP280;26325;48.594;11.650;2023-03-04T11:11:54;97075.41;;;4.21
40624;BMP280;26325;48.594;11.650;2023-03-04T11:14:26;97074.59;;;3.81
40624;BMP280;26325;48.594;11.650;2023-03-04T11:17:15;97073.88;;;4.33
40624;BMP280;26325;48.594;11.650;2023-03-04T11:19:46;97075.81;;;4.25
40624;BMP280;26325;48.594;11.650;2023-03-04T11:22:20;97066.44;;;3.98
40624;BMP280;26325;48.594;11.650;2023-03-04T11:25:17;97065.28;;;4.01
40624;BMP280;26325;48.594;11.650;2023-03-04T11:27:44;97061.63;;;4.22
40624;BMP280;26325;48.594;11.650;2023-03-04T11:31:13;97057.97;;;3.98
40624;BMP280;26325;48.594;11.650;2023-03-04T11:33:35;97066.28;;;4.06
40624;BMP280;26325;48.594;11.650;2023-03-04T11:38:48;97054.84;;;4.42
40624;BMP280;26325;48.594;11.650;2023-03-04T11:41:32;97052.91;;;4.50
40624;BMP280;26325;48.594;11.650;2023-03-04T11:43:59;97059.59;;;4.45
40624;BMP280;26325;48.594;11.650;2023-03-04T11:49:26;97052.00;;;4.24
40624;BMP280;26325;48.594;11.650;2023-03-04T11:52:16;97051.53;;;4.08
40624;BMP280;26325;48.594;11.650;2023-03-04T12:16:52;97004.84;;;4.39
40624;BMP280;26325;48.594;11.650;2023-03-04T12:24:57;97008.50;;;4.70
40624;BMP280;26325;48.594;11.650;2023-03-04T12:30:50;96995.13;;;4.81
40624;BMP280;26325;48.594;11.650;2023-03-04T12:36:31;96993.13;;;4.83
40624;BMP280;26325;48.594;11.650;2023-03-04T12:45:00;96980.13;;;4.65
40624;BMP280;26325;48.594;11.650;2023-03-04T12:53:10;96980.31;;;4.51
40624;BMP280;26325;48.594;11.650;2023-03-04T12:55:40;96966.34;;;4.54
40624;BMP280;26325;48.594;11.650;2023-03-04T12:58:22;96976.16;;;4.44
40624;BMP280;26325;48.594;11.650;2023-03-04T13:01:17;96964.38;;;4.56
40624;BMP280;26325;48.594;11.650;2023-03-04T13:12:19;96957.31;;;4.76
40624;BMP280;26325;48.594;11.650;2023-03-04T13:20:36;96953.25;;;4.17
40624;BMP280;26325;48.594;11.650;2023-03-04T13:51:17;96952.41;;;3.58
40624;BMP280;26325;48.594;11.650;2023-03-04T13:56:42;96957.16;;;4.07
40624;BMP280;26325;48.594;11.650;2023-03-04T14:06:54;96936.34;;;4.22
40624;BMP280;26325;48.594;11.650;2023-03-04T14:09:31;96936.38;;;4.29
40624;BMP280;26325;48.594;11.650;2023-03-04T14:12:02;96936.69;;;4.07
40624;BMP280;26325;48.594;11.650;2023-03-04T14:14:41;96940.66;;;4.16
40624;BMP280;26325;48.594;11.650;2023-03-04T14:17:28;96939.13;;;4.21
40624;BMP280;26325;48.594;11.650;2023-03-04T14:19:58;96936.84;;;3.86
40624;BMP280;26325;48.594;11.650;2023-03-04T14:22:28;96934.91;;;4.01
40624;BMP280;26325;48.594;11.650;2023-03-04T14:24:55;96933.94;;;4.02
40624;BMP280;26325;48.594;11.650;2023-03-04T14:27:23;96926.53;;;4.19
40624;BMP280;26325;48.594;11.650;2023-03-04T14:29:56;96928.84;;;4.15
40624;BMP280;26325;48.594;11.650;2023-03-04T14:32:24;96927.50;;;4.31
40624;BMP280;26325;48.594;11.650;2023-03-04T14:34:57;96918.50;;;4.41
40624;BMP280;26325;48.594;11.650;2023-03-04T14:37:25;96928.09;;;4.20
40624;BMP280;26325;48.594;11.650;2023-03-04T14:39:56;96932.44;;;4.33
40624;BMP280;26325;48.594;11.650;2023-03-04T14:42:24;96919.41;;;4.15
40624;BMP280;26325;48.594;11.650;2023-03-04T14:44:51;96927.31;;;4.20
40624;BMP280;26325;48.594;11.650;2023-03-04T14:49:54;96927.09;;;4.15
40624;BMP280;26325;48.594;11.650;2023-03-04T14:57:46;96919.41;;;4.02
40624;BMP280;26325;48.594;11.650;2023-03-04T15:02:51;96911.81;;;3.76
40624;BMP280;26325;48.594;11.650;2023-03-04T15:05:24;96909.88;;;3.78
40624;BMP280;26325;48.594;11.650;2023-03-04T15:08:03;96916.56;;;3.85
40624;BMP280;26325;48.594;11.650;2023-03-04T15:10:34;96902.75;;;3.67
40624;BMP280;26325;48.594;11.650;2023-03-04T15:13:03;96906.53;;;3.83
40624;BMP280;26325;48.594;11.650;2023-03-04T15:15:35;96897.31;;;3.89
40624;BMP280;26325;48.594;11.650;2023-03-04T15:18:21;96904.94;;;3.70
40624;BMP280;26325;48.594;11.650;2023-03-04T15:21:04;96898.41;;;3.61
40624;BMP280;26325;48.594;11.650;2023-03-04T15:23:31;96887.75;;;3.58
40624;BMP280;26325;48.594;11.650;2023-03-04T15:26:03;96897.47;;;3.35
40624;BMP280;26325;48.594;11.650;2023-03-04T15:28:35;96894.28;;;3.27
40624;BMP280;26325;48.594;11.650;2023-03-04T15:31:01;96898.31;;;3.42
40624;BMP280;26325;48.594;11.650;2023-03-04T15:33:29;96898.31;;;3.42
40624;BMP280;26325;48.594;11.650;2023-03-04T15:35:58;96891.59;;;3.35
40624;BMP280;26325;48.594;11.650;2023-03-04T15:38:24;96902.88;;;3.20
40624;BMP280;26325;48.594;11.650;2023-03-04T15:40:51;96896.25;;;3.25
40624;BMP280;26325;48.594;11.650;2023-03-04T15:43:19;96897.25;;;3.30
40624;BMP280;26325;48.594;11.650;2023-03-04T15:45:45;96906.00;;;3.15
40624;BMP280;26325;48.594;11.650;2023-03-04T15:48:12;96891.22;;;3.11
40624;BMP280;26325;48.594;11.650;2023-03-04T15:50:53;96903.19;;;3.10
40624;BMP280;26325;48.594;11.650;2023-03-04T15:55:48;96904.41;;;3.14
40624;BMP280;26325;48.594;11.650;2023-03-04T15:58:14;96906.97;;;2.87
40624;BMP280;26325;48.594;11.650;2023-03-04T16:00:39;96899.97;;;2.96
40624;BMP280;26325;48.594;11.650;2023-03-04T16:03:12;96896.09;;;3.00
40624;BMP280;26325;48.594;11.650;2023-03-04T16:05:38;96901.09;;;2.87
40624;BMP280;26325;48.594;11.650;2023-03-04T16:08:04;96908.13;;;2.85
40624;BMP280;26325;48.594;11.650;2023-03-04T16:10:29;96897.34;;;2.83
40624;BMP280;26325;48.594;11.650;2023-03-04T16:12:55;96901.44;;;2.84
40624;BMP280;26325;48.594;11.650;2023-03-04T16:15:23;96902.50;;;2.69
40624;BMP280;26325;48.594;11.650;2023-03-04T16:17:49;96904.84;;;2.64
40624;BMP280;26325;48.594;11.650;2023-03-04T16:20:18;96910.41;;;2.74
40624;BMP280;26325;48.594;11.650;2023-03-04T16:22:46;96917.09;;;2.75
40624;BMP280;26325;48.594;11.650;2023-03-04T16:25:13;96918.50;;;2.57
40624;BMP280;26325;48.594;11.650;2023-03-04T16:27:39;96914.72;;;2.53
40624;BMP280;26325;48.594;11.650;2023-03-04T16:30:07;96916.78;;;2.43